Time;durP1;ratioP1;P1;durP2;ratioP2;P2;SDS_P1;SDS_P2;PMS_P1;PMS_P2;Temp;Humidity;BMP_temperature;BMP_pressure;BME280_temperature;BME280_humidity;BME280_pressure;Samples;Min_cycle;Max_cycle;Signal;HPM_P1;HPM_P2
2023/11/30 00:03:24;;;;;;;28.80;15.00;;;;;;;-2.86;91.29;97513.48;436460;1248;106702;-40
2023/11/30 00:13:30;;;;;;;26.30;13.70;;;;;;;-2.75;91.61;97495.29;436210;1248;97902;-40
2023/11/30 00:23:37;;;;;;;27.20;14.90;;;;;;;-2.64;91.83;97496.30;436359;1253;111470;-40
2023/11/30 00:33:44;;;;;;;25.10;13.50;;;;;;;-2.58;92.09;97493.92;436449;1248;108492;-38
2023/11/30 00:43:51;;;;;;;29.10;14.50;;;;;;;-2.52;92.03;97491.03;435903;1253;535269;-40
2023/11/30 00:53:58;;;;;;;36.70;18.90;;;;;;;-2.47;92.22;97487.55;436456;1253;109533;-39
2023/11/30 01:15:36;;;;;;;30.30;16.70;;;;;;;-2.43;92.48;97493.66;436410;1253;97967;-40
2023/11/30 01:25:42;;;;;;;22.00;12.50;;;;;;;-2.30;92.69;97497.98;436329;1248;111880;-40
2023/11/30 01:35:50;;;;;;;22.30;13.60;;;;;;;-2.17;92.67;97491.34;436395;1248;108011;-39
2023/11/30 01:45:57;;;;;;;28.40;17.00;;;;;;;-2.13;92.99;97488.77;436532;1253;99286;-39
2023/11/30 01:56:12;;;;;;;31.80;17.90;;;;;;;-2.19;92.88;97494.15;436432;1253;111814;-42
2023/11/30 02:16:25;;;;;;;19.80;11.70;;;;;;;-2.24;92.67;97479.73;437186;1246;98639;-40
2023/11/30 02:26:32;;;;;;;33.20;18.40;;;;;;;-2.23;92.92;97476.13;436418;1250;111208;-40
2023/11/30 02:36:39;;;;;;;36.20;18.80;;;;;;;-2.29;93.06;97473.66;436302;1253;108156;-40
2023/11/30 02:46:46;;;;;;;23.10;13.70;;;;;;;-2.22;93.13;97471.01;436187;1248;99858;-39
2023/11/30 02:56:53;;;;;;;21.80;13.50;;;;;;;-2.08;93.19;97474.27;436248;1248;108502;-39
2023/11/30 03:07:01;;;;;;;30.40;17.10;;;;;;;-2.00;93.35;97473.51;436421;1253;99209;-39
2023/11/30 03:17:07;;;;;;;26.10;15.00;;;;;;;-1.98;93.64;97475.24;436397;1253;112851;-40
2023/11/30 03:27:15;;;;;;;25.20;14.00;;;;;;;-1.85;93.40;97478.98;436279;1251;107078;-40
2023/11/30 03:37:22;;;;;;;20.60;14.20;;;;;;;-1.77;93.67;97478.95;436291;1251;99102;-39
2023/11/30 03:57:35;;;;;;;30.30;16.30;;;;;;;-1.90;93.83;97469.55;436198;1254;98267;-39
2023/11/30 04:07:43;;;;;;;30.70;16.90;;;;;;;-1.94;93.65;97468.77;436357;1253;111837;-39
2023/11/30 04:17:50;;;;;;;22.80;14.20;;;;;;;-1.93;93.75;97460.13;436278;1253;108072;-41
2023/11/30 04:27:57;;;;;;;37.30;20.50;;;;;;;-1.89;93.60;97454.05;436360;1253;98061;-39
2023/11/30 04:38:04;;;;;;;39.60;20.90;;;;;;;-1.94;93.80;97448.08;436334;1252;107272;-39
2023/11/30 04:48:13;;;;;;;41.90;20.80;;;;;;;-2.08;93.97;97443.86;436296;1254;99151;-40
2023/11/30 04:58:20;;;;;;;35.90;19.20;;;;;;;-2.12;93.97;97444.29;436353;1261;112399;-40
2023/11/30 05:08:27;;;;;;;37.40;18.90;;;;;;;-2.04;93.71;97444.37;436197;1253;107465;-39
2023/11/30 05:18:34;;;;;;;31.60;17.20;;;;;;;-1.94;93.86;97442.05;436317;1253;98496;-38
2023/11/30 05:28:43;;;;;;;29.90;18.60;;;;;;;-1.88;93.98;97429.48;436223;1261;108277;-39
2023/11/30 05:38:50;;;;;;;36.60;19.90;;;;;;;-1.88;94.30;97428.00;436278;1257;98025;-40
2023/11/30 05:48:57;;;;;;;44.60;22.90;;;;;;;-1.96;94.24;97431.31;436292;1253;111304;-40
2023/11/30 05:59:04;;;;;;;32.50;19.40;;;;;;;-1.98;94.13;97434.67;436267;1248;108466;-40
2023/11/30 06:09:14;;;;;;;31.20;18.60;;;;;;;-1.89;94.26;97442.30;436276;1261;99343;-39
2023/11/30 06:29:27;;;;;;;69.90;29.90;;;;;;;-1.76;94.30;97451.11;436369;1248;99253;-39
2023/11/30 06:39:34;;;;;;;68.60;31.10;;;;;;;-1.89;94.07;97456.84;436449;1254;112216;-40
2023/11/30 06:49:41;;;;;;;43.60;23.60;;;;;;;-1.94;94.19;97479.33;436204;1254;108151;-39
2023/11/30 06:59:49;;;;;;;39.80;22.80;;;;;;;-1.78;94.19;97486.13;436236;1254;99260;-40
2023/11/30 07:09:56;;;;;;;38.80;20.50;;;;;;;-1.63;94.27;97486.56;436267;1248;112364;-40
2023/11/30 07:30:12;;;;;;;70.60;33.70;;;;;;;-1.64;94.07;97483.32;436353;1253;98832;-39
2023/11/30 07:40:21;;;;;;;44.70;25.10;;;;;;;-1.60;93.99;97486.75;436248;1247;110947;-40
2023/11/30 07:50:28;;;;;;;38.40;22.30;;;;;;;-1.29;94.16;97495.33;436448;1248;107756;-40
2023/11/30 08:10:41;;;;;;;53.50;29.50;;;;;;;-1.06;93.84;97508.33;436375;1254;106794;-40
2023/11/30 08:30:55;;;;;;;39.10;22.10;;;;;;;-0.86;93.73;97498.83;436214;1254;111756;-40
2023/11/30 08:51:11;;;;;;;47.30;24.60;;;;;;;-0.45;93.87;97494.46;436136;1253;99218;-40
2023/11/30 09:01:19;;;;;;;40.40;23.30;;;;;;;-0.31;93.65;97494.32;436191;1252;111395;-39
2023/11/30 09:11:29;;;;;;;28.40;18.60;;;;;;;-0.08;93.41;97493.37;436073;1248;107835;-40
2023/11/30 09:21:36;;;;;;;39.60;18.20;;;;;;;-0.04;93.08;97493.15;436248;1253;98817;-40
2023/11/30 09:31:44;;;;;;;45.10;23.60;;;;;;;-0.07;93.13;97492.21;436263;1254;109266;-40
2023/11/30 09:41:51;;;;;;;40.50;20.80;;;;;;;-0.14;92.98;97484.58;436262;1250;98827;-40
2023/11/30 09:51:58;;;;;;;31.70;18.60;;;;;;;-0.05;92.78;97472.19;436017;1248;111243;-40
2023/11/30 10:02:11;;;;;;;28.50;17.10;;;;;;;0.05;92.52;97465.67;436246;1248;109275;-40
2023/11/30 10:12:20;;;;;;;51.10;25.70;;;;;;;0.02;92.74;97456.48;436190;1253;99355;-40
2023/11/30 10:22:28;;;;;;;44.90;24.90;;;;;;;0.12;92.81;97446.06;436340;1253;112367;-40
2023/11/30 10:32:39;;;;;;;23.40;16.10;;;;;;;0.39;92.75;97427.70;436263;1248;109724;-42
2023/11/30 10:42:49;;;;;;;35.70;20.10;;;;;;;0.64;92.56;97421.59;436162;1251;98833;-40
2023/11/30 10:52:58;;;;;;;35.80;19.70;;;;;;;0.94;92.58;97411.70;436220;1248;108635;-41
2023/11/30 11:03:09;;;;;;;32.40;19.00;;;;;;;1.09;92.24;97402.90;436407;1253;119483;-41
2023/11/30 11:13:25;;;;;;;25.30;16.30;;;;;;;1.15;92.00;97396.52;436179;1248;112044;-41
2023/11/30 11:23:34;;;;;;;28.70;17.40;;;;;;;1.44;91.90;97388.60;436285;1252;107175;-39
2023/11/30 11:33:42;;;;;;;;;;;;;;;1.57;91.68;97382.60;436267;1253;99218;-39
2023/11/30 11:43:49;;;;;;;34.30;19.60;;;;;;;1.60;91.43;97375.10;436305;1250;107899;-41
2023/11/30 11:53:57;;;;;;;20.80;15.10;;;;;;;1.45;90.84;97367.89;436333;1254;98837;-40
2023/11/30 12:04:07;;;;;;;27.60;16.90;;;;;;;1.45;90.58;97355.91;436152;1253;111710;-39
2023/11/30 12:14:14;;;;;;;35.10;19.30;;;;;;;1.36;90.51;97354.77;436328;1252;108809;-39
2023/11/30 12:24:23;;;;;;;33.80;19.30;;;;;;;1.10;90.18;97344.03;436353;1248;99230;-40
2023/11/30 12:44:37;;;;;;;35.10;21.50;;;;;;;1.14;90.37;97326.67;436107;1247;425509;-39
2023/11/30 12:54:44;;;;;;;21.90;13.30;;;;;;;1.22;89.83;97315.77;436261;1253;111447;-40
2023/11/30 13:04:52;;;;;;;33.70;19.00;;;;;;;1.45;89.63;97298.48;436333;1248;109367;-39
2023/11/30 13:14:59;;;;;;;37.60;18.90;;;;;;;1.40;89.66;97296.23;436361;1250;98008;-40
2023/11/30 13:25:10;;;;;;;33.50;17.30;;;;;;;1.18;89.54;97285.42;437008;1248;112020;-41
2023/11/30 13:35:17;;;;;;;34.20;19.20;;;;;;;0.90;89.07;97288.77;436980;1253;109063;-40
2023/11/30 13:45:24;;;;;;;29.20;15.40;;;;;;;0.57;88.90;97292.92;436269;1247;98257;-40
2023/11/30 13:55:31;;;;;;;22.20;14.40;;;;;;;0.30;88.65;97310.68;436415;1248;110393;-39
2023/11/30 14:05:39;;;;;;;27.90;18.20;;;;;;;0.09;88.60;97315.10;436107;1248;108005;-41
2023/11/30 14:15:47;;;;;;;44.00;23.90;;;;;;;-0.09;88.70;97308.13;436394;1253;117369;-40
2023/11/30 14:36:02;;;;;;;63.10;30.30;;;;;;;-0.40;88.83;97320.45;436282;1253;99217;-40
2023/11/30 14:46:09;;;;;;;65.50;33.10;;;;;;;-0.62;88.74;97315.25;436178;1253;110752;-39
2023/11/30 14:56:17;;;;;;;66.50;32.90;;;;;;;-0.85;88.63;97305.52;436352;1247;106866;-40
2023/11/30 15:06:24;;;;;;;82.00;41.70;;;;;;;-1.08;88.76;97302.34;437027;1252;98842;-40
2023/11/30 15:26:38;;;;;;;125.90;68.50;;;;;;;-1.03;88.97;97287.99;436271;1248;98011;-40
2023/11/30 15:36:46;;;;;;;165.80;76.70;;;;;;;-0.95;88.95;97286.09;436339;1253;111822;-40
2023/11/30 15:46:53;;;;;;;164.20;76.00;;;;;;;-1.02;89.24;97290.15;436453;1251;108486;-39
2023/11/30 15:57:00;;;;;;;169.40;80.30;;;;;;;-1.14;89.22;97293.74;436364;1253;97988;-39
2023/11/30 16:07:08;;;;;;;193.50;87.50;;;;;;;-1.29;89.22;97293.38;436465;1248;109692;-40
2023/11/30 16:17:16;;;;;;;202.30;92.90;;;;;;;-1.45;89.26;97285.19;436271;1252;99241;-40
2023/11/30 16:27:24;;;;;;;163.40;84.10;;;;;;;-1.52;89.35;97288.48;436245;1253;112040;-39
2023/11/30 16:37:30;;;;;;;202.00;86.60;;;;;;;-1.47;89.36;97277.15;436261;1271;107476;-40
2023/11/30 16:57:45;;;;;;;284.20;125.50;;;;;;;-1.47;89.61;97257.73;436341;1248;106970;-40
2023/11/30 17:07:53;;;;;;;294.30;132.80;;;;;;;-1.63;89.66;97248.78;436282;1247;98571;-40
2023/11/30 17:18:00;;;;;;;324.40;140.10;;;;;;;-1.76;89.83;97260.03;436209;1251;112862;-41
2023/11/30 17:38:11;;;;;;;216.40;109.00;;;;;;;-1.94;89.72;97249.84;436314;1253;99290;-40
2023/11/30 17:48:19;;;;;;;211.40;101.00;;;;;;;-1.84;89.85;97262.83;436264;1253;111945;-40
2023/11/30 17:58:26;;;;;;;276.70;126.60;;;;;;;-1.83;89.65;97274.63;436367;1248;107816;-39
2023/11/30 18:08:34;;;;;;;317.60;139.20;;;;;;;-1.83;90.08;97264.70;436384;1252;97993;-39
2023/11/30 18:28:48;;;;;;;287.40;129.60;;;;;;;-1.98;90.19;97228.40;436288;1250;106674;-40
2023/11/30 18:49:02;;;;;;;251.60;122.80;;;;;;;-2.15;90.08;97213.36;436387;1248;110439;-41
2023/11/30 18:59:10;;;;;;;219.10;106.70;;;;;;;-2.17;90.00;97192.32;436375;1252;99241;-41
2023/11/30 19:19:23;;;;;;;342.20;150.60;;;;;;;-2.14;90.19;97190.20;436403;1251;108364;-40
2023/11/30 19:29:31;;;;;;;336.50;152.80;;;;;;;-2.21;90.21;97210.08;436391;1251;99097;-39
2023/11/30 19:39:39;;;;;;;371.10;169.30;;;;;;;-2.52;90.00;97231.52;436446;1253;110398;-40
2023/11/30 19:49:46;;;;;;;326.30;147.70;;;;;;;-2.77;90.07;97238.59;436905;1253;109150;-43
2023/11/30 19:59:53;;;;;;;235.50;122.40;;;;;;;-2.91;90.10;97227.14;436423;1248;99268;-40
2023/11/30 20:10:00;;;;;;;260.80;129.50;;;;;;;-2.96;89.60;97202.31;436373;1249;112474;-38
2023/11/30 20:20:09;;;;;;;330.70;148.80;;;;;;;-3.02;90.13;97187.65;436288;1249;108517;-39
2023/11/30 20:30:15;;;;;;;376.50;177.00;;;;;;;-3.07;90.05;97168.56;436372;1253;99337;-39
2023/11/30 20:40:23;;;;;;;419.60;196.20;;;;;;;-3.29;89.98;97181.70;436306;1252;111364;-40
2023/11/30 20:50:30;;;;;;;410.90;192.20;;;;;;;-3.58;90.02;97181.68;436285;1261;108062;-39
2023/11/30 21:00:37;;;;;;;386.80;188.20;;;;;;;-3.86;89.93;97192.80;436318;1248;99218;-40
2023/11/30 21:10:56;;;;;;;370.50;182.00;;;;;;;-3.98;90.32;97201.50;436276;1250;112168;-39
2023/11/30 21:21:38;;;;;;;320.20;164.30;;;;;;;-3.94;90.44;97207.30;436349;1253;109034;-40
2023/11/30 21:31:46;;;;;;;310.80;160.00;;;;;;;-3.79;90.48;97203.89;436307;1251;99222;-38
2023/11/30 21:41:52;;;;;;;247.90;129.30;;;;;;;-3.62;90.48;97200.45;436360;1251;107616;-38
2023/11/30 21:52:00;;;;;;;348.60;160.70;;;;;;;-3.59;90.35;97207.62;436180;1248;97979;-40
2023/11/30 22:02:08;;;;;;;353.90;168.30;;;;;;;-3.52;90.71;97210.95;436543;1252;112117;-40
2023/11/30 22:12:15;;;;;;;390.60;186.60;;;;;;;-3.66;90.39;97221.61;436147;1251;107847;-39
2023/11/30 22:22:23;;;;;;;446.60;208.10;;;;;;;-3.89;89.95;97236.02;436357;1253;99246;-39
2023/11/30 22:32:30;;;;;;;434.50;195.50;;;;;;;-4.04;90.15;97225.11;436364;1253;107247;-38
2023/11/30 22:42:38;;;;;;;382.60;194.60;;;;;;;-4.09;90.26;97230.21;436365;1253;98822;-40
2023/11/30 22:52:46;;;;;;;410.10;209.60;;;;;;;-4.05;90.14;97218.61;436340;1252;111846;-39
2023/11/30 23:02:53;;;;;;;382.50;187.30;;;;;;;-3.97;90.16;97209.63;436306;1253;107751;-41
2023/11/30 23:13:02;;;;;;;432.00;201.00;;;;;;;-4.11;89.97;97213.55;436430;1253;98027;-39
2023/11/30 23:23:09;;;;;;;399.00;195.10;;;;;;;-4.31;89.99;97206.74;436348;1258;111693;-40
2023/11/30 23:33:16;;;;;;;421.10;206.20;;;;;;;-4.41;90.39;97215.16;436263;1253;107305;-39
2023/11/30 23:43:24;;;;;;;397.30;188.70;;;;;;;-4.52;90.40;97207.84;436359;1254;99247;-40
2023/11/30 23:53:31;;;;;;;389.50;190.10;;;;;;;-4.65;90.13;97196.55;436487;1253;110611;-40
